Time;durP1;ratioP1;P1;durP2;ratioP2;P2;SDS_P1;SDS_P2;PMS_P1;PMS_P2;Temp;Humidity;BMP_temperature;BMP_pressure;BME280_temperature;BME280_humidity;BME280_pressure;Samples;Min_cycle;Max_cycle;Signal;HPM_P1;HPM_P2
2023/05/15 00:03:15;;;;;;;;;;;;;;;19.95;53.13;95169.13;10246794;28;1926;-68
2023/05/15 00:08:16;;;;;;;;;;;;;;;19.95;53.05;95165.69;10247559;28;1805;-67
2023/05/15 00:13:17;;;;;;;;;;;;;;;19.94;52.79;95166.78;10241965;28;1887;-68
2023/05/15 00:18:18;;;;;;;;;;;;;;;19.93;52.70;95166.00;10243004;28;2084;-67
2023/05/15 00:23:18;;;;;;;;;;;;;;;19.93;52.81;95167.84;10245881;28;1918;-67
2023/05/15 00:28:18;;;;;;;;;;;;;;;19.91;52.78;95159.44;10246323;28;1895;-67
2023/05/15 00:33:18;;;;;;;;;;;;;;;19.90;52.52;95158.69;10240996;28;1918;-67
2023/05/15 00:38:19;;;;;;;;;;;;;;;19.91;52.65;95151.56;10242988;28;5510;-68
2023/05/15 00:43:19;;;;;;;;;;;;;;;19.90;52.52;95150.00;10247282;28;1960;-67
2023/05/15 00:48:21;;;;;;;;;;;;;;;19.88;52.46;95138.97;10244728;28;1978;-68
2023/05/15 00:53:21;;;;;;;;;;;;;;;19.88;52.33;95141.63;10248264;28;2017;-67
2023/05/15 00:58:22;;;;;;;;;;;;;;;19.88;52.26;95141.63;10242995;28;1965;-68
2023/05/15 01:03:22;;;;;;;;;;;;;;;19.85;52.29;95142.97;10244203;28;1973;-67
2023/05/15 01:08:34;;;;;;;;;;;;;;;19.86;52.05;95149.78;10245537;28;1802;-67
2023/05/15 01:13:34;;;;;;;;;;;;;;;19.86;52.13;95143.75;10240870;28;2084;-67
2023/05/15 01:18:35;;;;;;;;;;;;;;;19.85;52.23;95142.16;10244203;28;2278;-67
2023/05/15 01:23:41;;;;;;;;;;;;;;;19.84;52.15;95146.66;10241091;28;1967;-66
2023/05/15 01:28:43;;;;;;;;;;;;;;;19.84;51.97;95146.66;10242200;28;1984;-68
2023/05/15 01:33:45;;;;;;;;;;;;;;;19.83;51.92;95134.56;10244980;28;1921;-68
2023/05/15 01:38:46;;;;;;;;;;;;;;;19.84;51.83;95130.09;10244199;28;5291;-68
2023/05/15 01:43:47;;;;;;;;;;;;;;;19.82;51.91;95133.03;10230120;28;1953;-68
2023/05/15 01:48:47;;;;;;;;;;;;;;;19.81;51.86;95139.31;10239717;28;1936;-68
2023/05/15 01:53:47;;;;;;;;;;;;;;;19.82;51.59;95137.50;10239240;28;1988;-68
2023/05/15 01:58:48;;;;;;;;;;;;;;;19.80;51.59;95129.88;10238537;28;2041;-67
2023/05/15 02:03:48;;;;;;;;;;;;;;;19.79;51.48;95127.53;10236967;28;1937;-68
2023/05/15 02:08:48;;;;;;;;;;;;;;;19.79;51.55;95124.88;10238367;28;1961;-66
2023/05/15 02:13:48;;;;;;;;;;;;;;;19.77;51.44;95127.81;10242291;28;2184;-68
2023/05/15 02:18:49;;;;;;;;;;;;;;;19.78;51.46;95125.97;10236267;28;1972;-68
2023/05/15 02:23:49;;;;;;;;;;;;;;;19.77;51.36;95119.91;10236649;28;2025;-68
2023/05/15 02:28:53;;;;;;;;;;;;;;;19.77;51.54;95121.75;10246141;28;1846;-68
2023/05/15 02:34:07;;;;;;;;;;;;;;;19.76;51.22;95128.09;10236504;28;1935;-67
2023/05/15 02:39:08;;;;;;;;;;;;;;;19.76;51.20;95128.09;10235060;28;5188;-67
2023/05/15 02:44:08;;;;;;;;;;;;;;;19.75;51.09;95129.16;10239829;28;1949;-67
2023/05/15 02:49:09;;;;;;;;;;;;;;;19.74;51.22;95124.97;10245659;28;1909;-67
2023/05/15 02:54:10;;;;;;;;;;;;;;;19.73;51.13;95124.19;10230677;28;1929;-67
2023/05/15 02:59:10;;;;;;;;;;;;;;;19.73;51.21;95124.19;10240815;28;1976;-67
2023/05/15 03:04:10;;;;;;;;;;;;;;;19.73;51.15;95118.13;10234318;28;2268;-67
2023/05/15 03:09:10;;;;;;;;;;;;;;;19.71;51.18;95115.78;10239920;28;2402;-67
2023/05/15 03:14:11;;;;;;;;;;;;;;;19.72;51.09;95116.59;10235828;28;2163;-68
2023/05/15 03:19:11;;;;;;;;;;;;;;;19.71;50.99;95112.38;10237767;28;2171;-68
2023/05/15 03:24:11;;;;;;;;;;;;;;;19.69;51.01;95110.03;10238968;28;1996;-67
2023/05/15 03:29:11;;;;;;;;;;;;;;;19.71;51.03;95109.75;10243207;28;2165;-68
2023/05/15 03:34:12;;;;;;;;;;;;;;;19.69;50.78;95111.88;10234261;28;8286;-67
2023/05/15 03:39:12;;;;;;;;;;;;;;;19.69;50.74;95114.50;10241624;28;8278;-67
2023/05/15 03:44:12;;;;;;;;;;;;;;;19.68;50.72;95105.06;10238777;28;8211;-68
2023/05/15 03:49:12;;;;;;;;;;;;;;;19.68;50.84;95115.59;10242717;28;8057;-68
2023/05/15 03:54:13;;;;;;;;;;;;;;;19.67;50.65;95114.78;10245516;28;2237;-67
2023/05/15 03:59:13;;;;;;;;;;;;;;;19.67;50.59;95120.06;10246463;28;2002;-67
2023/05/15 04:04:13;;;;;;;;;;;;;;;19.66;50.59;95113.22;10245146;28;1988;-67
2023/05/15 04:09:13;;;;;;;;;;;;;;;19.69;50.34;95122.41;10250072;28;8185;-67
2023/05/15 04:14:14;;;;;;;;;;;;;;;19.72;50.36;95125.22;10242865;28;1981;-67
2023/05/15 04:19:14;;;;;;;;;;;;;;;19.74;50.45;95131.00;10242405;28;1965;-67
2023/05/15 04:24:14;;;;;;;;;;;;;;;19.78;50.14;95134.66;10247968;28;1905;-67
2023/05/15 04:29:15;;;;;;;;;;;;;;;19.83;50.21;95133.78;10246365;28;1841;-67
2023/05/15 04:34:15;;;;;;;;;;;;;;;19.86;50.32;95138.47;10245232;28;1920;-69
2023/05/15 04:39:16;;;;;;;;;;;;;;;19.91;50.33;95135.78;10246539;28;1969;-67
2023/05/15 04:44:16;;;;;;;;;;;;;;;19.97;50.13;95134.66;10244266;28;8733;-67
2023/05/15 04:49:16;;;;;;;;;;;;;;;20.02;49.89;95139.84;10243253;28;1981;-67
2023/05/15 04:54:16;;;;;;;;;;;;;;;20.09;49.86;95142.91;10239677;28;2074;-66
2023/05/15 04:59:17;;;;;;;;;;;;;;;20.12;49.84;95129.97;10243061;28;1925;-67
2023/05/15 05:04:20;;;;;;;;;;;;;;;20.21;49.55;95140.66;10241060;28;1949;-67
2023/05/15 05:09:20;;;;;;;;;;;;;;;20.24;49.50;95154.03;10225379;28;1973;-67
2023/05/15 05:14:20;;;;;;;;;;;;;;;20.30;49.32;95149.47;10240930;28;2033;-67
2023/05/15 05:19:21;;;;;;;;;;;;;;;20.35;48.92;95159.94;10237662;28;1901;-67
2023/05/15 05:24:21;;;;;;;;;;;;;;;20.39;48.98;95155.66;10242878;28;2029;-67
2023/05/15 05:29:21;;;;;;;;;;;;;;;20.41;48.53;95150.88;10239399;28;1942;-68
2023/05/15 05:34:21;;;;;;;;;;;;;;;20.43;48.58;95159.28;10242350;28;1991;-67
2023/05/15 05:39:22;;;;;;;;;;;;;;;20.49;48.59;95167.88;10240785;28;2035;-67
2023/05/15 05:44:23;;;;;;;;;;;;;;;20.49;48.43;95176.56;10245607;28;4799;-68
2023/05/15 05:49:23;;;;;;;;;;;;;;;20.51;48.24;95171.78;10244459;28;1818;-67
2023/05/15 05:54:23;;;;;;;;;;;;;;;20.51;48.66;95177.06;10240891;28;2001;-67
2023/05/15 05:59:24;;;;;;;;;;;;;;;20.51;48.77;95171.78;10242833;28;1967;-67
2023/05/15 06:04:24;;;;;;;;;;;;;;;20.53;48.72;95174.13;10236026;28;2185;-67
2023/05/15 06:09:24;;;;;;;;;;;;;;;20.52;48.54;95172.56;10242347;28;1914;-67
2023/05/15 06:14:25;;;;;;;;;;;;;;;20.53;48.44;95174.91;10237806;28;1968;-67
2023/05/15 06:19:25;;;;;;;;;;;;;;;20.52;48.56;95177.84;10237985;28;1914;-66
2023/05/15 06:24:25;;;;;;;;;;;;;;;20.51;48.50;95173.63;10239133;28;1981;-68
2023/05/15 06:29:26;;;;;;;;;;;;;;;20.50;48.76;95174.72;10225232;28;1996;-64
2023/05/15 06:34:26;;;;;;;;;;;;;;;20.50;48.77;95180.78;10226707;28;2043;-66
2023/05/15 06:39:26;;;;;;;;;;;;;;;20.48;48.69;95175.00;10230975;28;5095;-67
2023/05/15 06:44:27;;;;;;;;;;;;;;;20.48;49.03;95184.75;10232679;28;1942;-66
2023/05/15 06:49:27;;;;;;;;;;;;;;;20.47;49.00;95191.84;10223182;28;1951;-65
2023/05/15 06:54:27;;;;;;;;;;;;;;;20.47;49.23;95197.13;10229596;28;1916;-65
2023/05/15 06:59:28;;;;;;;;;;;;;;;20.45;48.99;95199.25;10231842;28;1957;-65
2023/05/15 07:04:29;;;;;;;;;;;;;;;20.43;49.01;95203.25;10227710;28;1954;-66
2023/05/15 07:09:30;;;;;;;;;;;;;;;20.42;49.40;95202.47;10230067;28;1923;-66
2023/05/15 07:14:30;;;;;;;;;;;;;;;20.42;49.25;95193.78;10230147;28;1906;-66
2023/05/15 07:19:30;;;;;;;;;;;;;;;20.40;49.31;95185.41;10227890;28;2065;-65
2023/05/15 07:24:30;;;;;;;;;;;;;;;20.39;49.10;95195.13;10232315;28;1928;-67
2023/05/15 07:29:31;;;;;;;;;;;;;;;20.38;49.37;95190.16;10237140;28;2054;-68
2023/05/15 07:34:31;;;;;;;;;;;;;;;20.37;49.26;95197.28;10233971;28;1866;-66
2023/05/15 07:39:31;;;;;;;;;;;;;;;20.36;49.20;95187.03;10240361;28;5109;-67
2023/05/15 07:44:31;;;;;;;;;;;;;;;20.35;49.31;95188.88;10236200;28;1858;-66
2023/05/15 07:49:32;;;;;;;;;;;;;;;20.33;49.36;95179.69;10235681;28;1918;-67
2023/05/15 07:54:32;;;;;;;;;;;;;;;20.33;49.33;95185.75;10236305;28;2059;-69
2023/05/15 07:59:33;;;;;;;;;;;;;;;20.32;49.36;95183.41;10231638;28;1969;-71
2023/05/15 08:04:33;;;;;;;;;;;;;;;20.30;49.21;95178.41;10233687;28;1891;-67
2023/05/15 08:09:33;;;;;;;;;;;;;;;20.30;49.18;95185.53;10233284;28;1954;-68
2023/05/15 08:14:34;;;;;;;;;;;;;;;20.29;49.06;95184.75;10232898;28;2093;-69
2023/05/15 08:19:34;;;;;;;;;;;;;;;20.28;49.32;95183.97;10234949;28;1958;-68
2023/05/15 08:24:34;;;;;;;;;;;;;;;20.28;49.35;95183.97;10232376;28;1978;-65
2023/05/15 08:29:35;;;;;;;;;;;;;;;20.26;49.32;95186.09;10239338;28;1886;-69
2023/05/15 08:34:35;;;;;;;;;;;;;;;20.25;49.29;95176.66;10235506;28;1947;-67
2023/05/15 08:39:35;;;;;;;;;;;;;;;20.26;49.19;95182.69;10228505;28;5121;-66
2023/05/15 08:44:35;;;;;;;;;;;;;;;20.25;49.33;95184.56;10236054;28;1890;-65
2023/05/15 08:49:54;;;;;;;;;;;;;;;20.24;49.35;95177.72;10230225;28;1978;-67
2023/05/15 08:54:55;;;;;;;;;;;;;;;20.23;49.39;95185.91;10231862;28;1990;-67
2023/05/15 08:59:55;;;;;;;;;;;;;;;20.23;49.15;95178.00;10231947;28;1971;-67
2023/05/15 09:04:55;;;;;;;;;;;;;;;20.20;49.18;95176.72;10233818;28;1934;-67
2023/05/15 09:09:56;;;;;;;;;;;;;;;20.21;49.37;95177.50;10232069;28;1893;-67
2023/05/15 09:15:09;;;;;;;;;;;;;;;20.20;49.17;95165.41;10230975;28;1978;-67
2023/05/15 09:20:25;;;;;;;;;;;;;;;20.20;49.31;95157.50;10232473;28;2062;-68
2023/05/15 09:25:39;;;;;;;;;;;;;;;20.18;49.38;95149.88;10230061;28;2159;-66
2023/05/15 09:30:42;;;;;;;;;;;;;;;20.18;49.44;95149.09;10230424;28;1994;-67
2023/05/15 09:35:44;;;;;;;;;;;;;;;20.18;49.36;95155.13;10231692;28;1989;-68
2023/05/15 09:40:44;;;;;;;;;;;;;;;20.19;49.39;95150.66;10231698;28;1930;-67
2023/05/15 09:45:47;;;;;;;;;;;;;;;20.17;49.28;95143.03;10229457;28;1943;-67
2023/05/15 09:50:47;;;;;;;;;;;;;;;20.17;49.14;95143.03;10229335;28;1883;-68
2023/05/15 09:55:47;;;;;;;;;;;;;;;20.18;49.56;95147.25;10233537;28;1975;-68
2023/05/15 10:00:48;;;;;;;;;;;;;;;20.18;49.29;95147.25;10229483;28;1910;-68
2023/05/15 10:05:48;;;;;;;;;;;;;;;20.17;49.30;95135.13;10226224;28;1922;-69
2023/05/15 10:10:48;;;;;;;;;;;;;;;20.17;49.38;95121.22;10230285;28;1883;-68
2023/05/15 10:15:48;;;;;;;;;;;;;;;20.16;49.40;95128.31;10228387;28;1915;-68
2023/05/15 10:20:49;;;;;;;;;;;;;;;20.16;49.13;95119.63;10228878;28;2340;-68
2023/05/15 10:25:49;;;;;;;;;;;;;;;20.17;49.29;95103.56;10231499;28;2212;-68
2023/05/15 10:30:50;;;;;;;;;;;;;;;20.18;49.25;95099.09;10233207;28;1875;-68
2023/05/15 10:35:50;;;;;;;;;;;;;;;20.18;49.08;95104.34;10230223;28;1819;-67
2023/05/15 10:40:51;;;;;;;;;;;;;;;20.17;49.26;95102.78;10230692;28;5012;-67
2023/05/15 10:45:51;;;;;;;;;;;;;;;20.15;49.29;95099.66;10232022;28;1854;-67
2023/05/15 10:50:51;;;;;;;;;;;;;;;20.14;49.44;95092.84;10232130;28;1845;-67
2023/05/15 10:55:52;;;;;;;;;;;;;;;20.13;49.40;95092.03;10228029;28;1950;-68
2023/05/15 11:00:52;;;;;;;;;;;;;;;20.14;49.38;95079.69;10233944;28;2009;-68
2023/05/15 11:06:11;;;;;;;;;;;;;;;20.13;49.51;95078.88;10233924;28;1951;-67
2023/05/15 11:11:47;;;;;;;;;;;;;;;20.13;49.45;95071.00;10233732;28;1875;-66
2023/05/15 11:16:53;;;;;;;;;;;;;;;20.13;49.35;95064.97;10227814;28;2640;-67
2023/05/15 11:22:00;;;;;;;;;;;;;;;20.11;49.43;95067.88;10234939;28;1986;-68
2023/05/15 11:27:01;;;;;;;;;;;;;;;20.12;49.30;95071.28;10233792;28;1823;-68
2023/05/15 11:32:01;;;;;;;;;;;;;;;20.13;49.52;95072.88;10228299;28;1893;-68
2023/05/15 11:37:01;;;;;;;;;;;;;;;20.13;49.58;95060.47;10231883;28;1844;-69
2023/05/15 11:42:09;;;;;;;;;;;;;;;20.13;49.62;95055.19;10231094;28;5087;-69
2023/05/15 11:47:09;;;;;;;;;;;;;;;20.13;49.45;95049.19;10234634;28;2273;-70
2023/05/15 11:52:10;;;;;;;;;;;;;;;20.14;49.36;95056.78;10224755;28;1962;-69
2023/05/15 11:57:10;;;;;;;;;;;;;;;20.14;49.53;95058.63;10221519;28;2130;-68
2023/05/15 12:02:11;;;;;;;;;;;;;;;20.15;49.81;95070.72;10230011;28;1934;-68
2023/05/15 12:07:11;;;;;;;;;;;;;;;20.14;49.73;95085.72;10231655;28;1984;-68
2023/05/15 12:12:11;;;;;;;;;;;;;;;20.14;49.58;95098.09;10231652;28;2065;-68
2023/05/15 12:17:11;;;;;;;;;;;;;;;20.13;49.54;95101.81;10236536;28;1894;-67
2023/05/15 12:22:12;;;;;;;;;;;;;;;20.11;49.40;95104.69;10233575;28;2017;-70
2023/05/15 12:27:12;;;;;;;;;;;;;;;20.12;49.76;95094.97;10240354;28;1969;-69
2023/05/15 12:32:12;;;;;;;;;;;;;;;20.10;49.40;95095.25;10232322;28;1921;-68
2023/05/15 12:37:13;;;;;;;;;;;;;;;20.12;49.58;95094.97;10239244;28;1872;-68
2023/05/15 12:42:13;;;;;;;;;;;;;;;20.11;49.46;95104.69;10233605;28;5081;-68
2023/05/15 12:47:14;;;;;;;;;;;;;;;20.10;49.54;95107.63;10236279;28;1966;-68
2023/05/15 12:52:15;;;;;;;;;;;;;;;20.09;49.20;95116.59;10236723;28;2026;-67
2023/05/15 12:57:15;;;;;;;;;;;;;;;20.08;49.22;95115.03;10234529;28;1941;-68
2023/05/15 13:02:15;;;;;;;;;;;;;;;20.09;49.16;95116.59;10232906;28;1907;-69
2023/05/15 13:07:16;;;;;;;;;;;;;;;20.08;49.17;95115.03;10239087;28;2012;-68
2023/05/15 13:12:19;;;;;;;;;;;;;;;20.08;49.32;95125.53;10236264;28;1907;-67
2023/05/15 13:17:20;;;;;;;;;;;;;;;20.07;49.31;95119.50;10238734;28;1895;-68
2023/05/15 13:22:20;;;;;;;;;;;;;;;20.07;49.40;95114.22;10239310;28;1887;-68
2023/05/15 13:27:21;;;;;;;;;;;;;;;20.07;49.48;95114.22;10237553;28;1903;-68
2023/05/15 13:32:21;;;;;;;;;;;;;;;20.08;49.56;95109.75;10239148;28;1908;-68
2023/05/15 13:37:21;;;;;;;;;;;;;;;20.08;49.50;95115.81;10239032;28;1837;-67
2023/05/15 13:42:21;;;;;;;;;;;;;;;20.14;49.94;95124.41;10239079;28;4912;-67
2023/05/15 13:47:22;;;;;;;;;;;;;;;20.15;49.66;95120.72;10231225;28;1800;-67
2023/05/15 13:52:22;;;;;;;;;;;;;;;20.17;49.78;95126.47;10229246;28;1840;-67
2023/05/15 13:57:22;;;;;;;;;;;;;;;20.19;49.90;95119.91;10231763;28;1825;-68
2023/05/15 14:02:25;;;;;;;;;;;;;;;20.22;49.79;95126.41;10226355;28;2045;-68
2023/05/15 14:07:25;;;;;;;;;;;;;;;20.24;49.66;95126.91;10225510;28;1922;-67
2023/05/15 14:12:25;;;;;;;;;;;;;;;20.27;49.95;95123.72;10226344;28;1867;-68
2023/05/15 14:17:26;;;;;;;;;;;;;;;20.30;49.97;95122.38;10225941;28;1900;-69
2023/05/15 14:22:27;;;;;;;;;;;;;;;20.33;49.80;95117.31;10233083;28;1906;-67
2023/05/15 14:27:27;;;;;;;;;;;;;;;20.36;49.97;95124.63;10226032;28;1874;-68
2023/05/15 14:32:27;;;;;;;;;;;;;;;20.42;49.71;95133.25;10221056;28;1855;-69
2023/05/15 14:37:28;;;;;;;;;;;;;;;20.42;50.03;95131.41;10219834;28;1942;-68
2023/05/15 14:42:28;;;;;;;;;;;;;;;20.43;49.95;95156.66;10232417;28;4740;-68
2023/05/15 14:47:28;;;;;;;;;;;;;;;20.46;49.90;95163.97;10227433;28;1835;-68
2023/05/15 14:52:29;;;;;;;;;;;;;;;20.47;49.64;95173.44;10228570;28;1883;-69
2023/05/15 14:57:29;;;;;;;;;;;;;;;20.49;49.50;95167.88;10222435;28;1918;-71
2023/05/15 15:02:29;;;;;;;;;;;;;;;20.48;49.65;95161.06;10224191;28;2442;-70
2023/05/15 15:07:29;;;;;;;;;;;;;;;20.50;49.54;95164.97;10223782;28;1873;-71
2023/05/15 15:12:30;;;;;;;;;;;;;;;20.48;49.55;95167.09;10230041;28;1840;-69
2023/05/15 15:17:30;;;;;;;;;;;;;;;20.50;49.61;95167.59;10205407;28;1957;-71
2023/05/15 15:22:30;;;;;;;;;;;;;;;20.49;49.57;95160.75;10225270;28;1971;-69
2023/05/15 15:27:31;;;;;;;;;;;;;;;20.50;49.67;95153.66;10227546;28;1895;-70
2023/05/15 15:32:31;;;;;;;;;;;;;;;20.48;49.83;95151.31;10228395;28;1645;-68
2023/05/15 15:37:32;;;;;;;;;;;;;;;20.49;49.65;95142.34;10227062;28;1871;-68
2023/05/15 15:42:32;;;;;;;;;;;;;;;20.48;49.69;95147.88;10226646;28;1979;-68
2023/05/15 15:47:33;;;;;;;;;;;;;;;20.48;49.59;95151.31;10235433;28;1801;-67
2023/05/15 15:52:33;;;;;;;;;;;;;;;20.48;49.63;95147.88;10236553;28;1839;-69
2023/05/15 15:57:33;;;;;;;;;;;;;;;20.47;49.65;95144.47;10230012;28;1851;-68
2023/05/15 16:02:34;;;;;;;;;;;;;;;20.47;49.86;95152.38;10234451;28;1972;-71
2023/05/15 16:07:34;;;;;;;;;;;;;;;20.46;49.71;95148.19;10232158;28;1843;-69
2023/05/15 16:12:34;;;;;;;;;;;;;;;20.44;49.70;95144.28;10233935;28;1821;-67
2023/05/15 16:17:35;;;;;;;;;;;;;;;20.45;49.51;95151.09;10233909;28;1891;-70
2023/05/15 16:22:36;;;;;;;;;;;;;;;20.44;49.69;95154.78;10234786;28;1911;-69
2023/05/15 16:27:36;;;;;;;;;;;;;;;20.43;49.63;95159.28;10234506;28;1963;-68
2023/05/15 16:32:36;;;;;;;;;;;;;;;20.43;49.60;95156.66;10229781;28;1840;-70
2023/05/15 16:37:37;;;;;;;;;;;;;;;20.43;49.77;95161.91;10227786;28;1915;-69
2023/05/15 16:42:37;;;;;;;;;;;;;;;20.43;49.61;95163.75;10230805;28;4630;-68
2023/05/15 16:47:38;;;;;;;;;;;;;;;20.42;50.00;95170.88;10233961;28;2184;-68
2023/05/15 16:52:43;;;;;;;;;;;;;;;20.41;49.88;95182.47;10230947;28;2085;-68
2023/05/15 16:57:44;;;;;;;;;;;;;;;20.40;49.94;95180.91;10228423;28;1879;-69
2023/05/15 17:02:44;;;;;;;;;;;;;;;20.41;49.84;95182.47;10227891;28;1914;-70
2023/05/15 17:07:45;;;;;;;;;;;;;;;20.39;49.82;95189.88;10232113;28;1856;-67
2023/05/15 17:12:45;;;;;;;;;;;;;;;20.40;49.97;95186.19;10232589;28;1808;-64
2023/05/15 17:17:46;;;;;;;;;;;;;;;20.40;49.94;95201.97;10233567;28;1828;-66
2023/05/15 17:22:46;;;;;;;;;;;;;;;20.40;49.71;95211.72;10226458;28;2038;-67
2023/05/15 17:27:46;;;;;;;;;;;;;;;20.41;49.75;95210.63;10234883;28;1773;-67
2023/05/15 17:32:46;;;;;;;;;;;;;;;20.38;49.88;95206.72;10230874;28;2046;-69
2023/05/15 17:37:47;;;;;;;;;;;;;;;20.37;49.95;95210.44;10236255;28;1935;-70
2023/05/15 17:42:47;;;;;;;;;;;;;;;20.35;49.52;95201.25;10241001;28;4931;-70
2023/05/15 17:47:47;;;;;;;;;;;;;;;20.34;49.76;95205.72;10243877;28;2045;-70
2023/05/15 17:52:48;;;;;;;;;;;;;;;20.34;49.81;95205.72;10244661;28;2149;-68
2023/05/15 17:57:48;;;;;;;;;;;;;;;20.35;49.59;95212.56;10241361;28;1947;-66
2023/05/15 18:02:48;;;;;;;;;;;;;;;20.37;49.62;95217.53;10238107;28;1981;-68
2023/05/15 18:07:49;;;;;;;;;;;;;;;20.38;49.72;95222.50;10239851;28;1812;-67
2023/05/15 18:12:49;;;;;;;;;;;;;;;20.38;49.63;95232.28;10238242;28;1856;-67
2023/05/15 18:17:49;;;;;;;;;;;;;;;20.33;49.42;95230.50;10226005;28;1832;-70
2023/05/15 18:22:50;;;;;;;;;;;;;;;20.35;49.46;95231.00;10240925;28;1907;-69
2023/05/15 18:27:50;;;;;;;;;;;;;;;20.36;49.20;95232.53;10233116;28;1959;-69
2023/05/15 18:32:50;;;;;;;;;;;;;;;20.37;49.53;95231.50;10235630;28;2079;-69
2023/05/15 18:37:50;;;;;;;;;;;;;;;20.38;49.42;95232.28;10235975;28;1887;-70
2023/05/15 18:42:54;;;;;;;;;;;;;;;20.39;49.16;95242.53;10237782;28;5058;-70
2023/05/15 18:47:54;;;;;;;;;;;;;;;20.39;49.17;95232.00;10238963;28;1991;-70
2023/05/15 18:52:54;;;;;;;;;;;;;;;20.42;49.30;95241.97;10235784;28;1915;-69
2023/05/15 18:57:55;;;;;;;;;;;;;;;20.41;49.10;95245.66;10235316;28;1875;-69
2023/05/15 19:02:55;;;;;;;;;;;;;;;20.41;49.31;95245.66;10238592;28;1976;-69
2023/05/15 19:07:55;;;;;;;;;;;;;;;20.40;49.04;95246.72;10236086;28;1880;-69
2023/05/15 19:12:56;;;;;;;;;;;;;;;20.42;49.11;95246.44;10226769;28;2029;-71
2023/05/15 19:17:56;;;;;;;;;;;;;;;20.41;48.98;95253.56;10241012;28;2119;-70
2023/05/15 19:22:56;;;;;;;;;;;;;;;20.42;49.18;95252.50;10248194;28;2106;-71
2023/05/15 19:27:56;;;;;;;;;;;;;;;20.42;49.18;95263.03;10248530;28;1975;-71
2023/05/15 19:32:57;;;;;;;;;;;;;;;20.42;49.29;95259.59;10241365;28;1937;-68
2023/05/15 19:37:57;;;;;;;;;;;;;;;20.41;49.01;95271.97;10244101;28;1891;-69
2023/05/15 19:42:57;;;;;;;;;;;;;;;20.40;49.18;95267.00;10245380;28;4844;-68
2023/05/15 19:47:59;;;;;;;;;;;;;;;20.39;49.50;95278.59;10249308;28;1966;-68
2023/05/15 19:52:59;;;;;;;;;;;;;;;20.41;50.67;95265.91;10246152;28;1768;-69
2023/05/15 19:58:00;;;;;;;;;;;;;;;20.41;51.00;95274.59;10236720;28;1875;-68
2023/05/15 20:03:00;;;;;;;;;;;;;;;20.43;51.15;95266.41;10241428;28;1911;-68
2023/05/15 20:08:00;;;;;;;;;;;;;;;20.41;51.03;95261.44;10246631;28;1801;-69
2023/05/15 20:13:00;;;;;;;;;;;;;;;20.39;50.82;95263.59;10247115;28;1832;-70
2023/05/15 20:18:01;;;;;;;;;;;;;;;20.39;51.16;95260.94;10240844;28;1875;-70
2023/05/15 20:23:01;;;;;;;;;;;;;;;20.42;52.28;95270.13;10244180;28;1907;-70
2023/05/15 20:28:03;;;;;;;;;;;;;;;20.42;52.21;95270.13;10243985;28;1914;-70
2023/05/15 20:33:03;;;;;;;;;;;;;;;20.40;52.13;95267.78;10241841;28;1882;-70
2023/05/15 20:38:03;;;;;;;;;;;;;;;20.39;52.14;95268.84;10242995;28;2211;-70
2023/05/15 20:43:03;;;;;;;;;;;;;;;20.38;52.04;95272.53;10242172;28;4989;-69
2023/05/15 20:48:05;;;;;;;;;;;;;;;20.36;51.96;95272.03;10246082;28;1875;-70
2023/05/15 20:53:05;;;;;;;;;;;;;;;20.37;51.80;95265.72;10246420;28;1832;-71
2023/05/15 20:58:05;;;;;;;;;;;;;;;20.35;51.69;95267.06;10248422;28;1911;-71
2023/05/15 21:03:05;;;;;;;;;;;;;;;20.35;51.54;95261.78;10241755;28;1968;-70
2023/05/15 21:08:06;;;;;;;;;;;;;;;20.33;51.84;95259.44;10251093;28;1850;-72
2023/05/15 21:13:07;;;;;;;;;;;;;;;20.33;51.89;95275.25;10242970;28;1821;-71
2023/05/15 21:18:07;;;;;;;;;;;;;;;20.32;51.63;95267.63;10243507;28;1843;-71
2023/05/15 21:23:07;;;;;;;;;;;;;;;20.29;51.77;95266.34;10242300;28;2396;-71
2023/05/15 21:28:08;;;;;;;;;;;;;;;20.28;51.55;95273.44;10239383;28;2044;-71
2023/05/15 21:33:08;;;;;;;;;;;;;;;20.28;51.31;95272.66;10241401;28;2281;-71
2023/05/15 21:38:08;;;;;;;;;;;;;;;20.27;51.24;95266.63;10236825;28;2059;-72
2023/05/15 21:43:08;;;;;;;;;;;;;;;20.25;51.24;95262.72;10234719;28;5003;-72
2023/05/15 21:48:09;;;;;;;;;;;;;;;20.24;51.24;95261.94;10235725;28;1879;-72
2023/05/15 21:53:09;;;;;;;;;;;;;;;20.24;51.16;95274.28;10240218;28;1853;-71
2023/05/15 21:58:09;;;;;;;;;;;;;;;20.21;51.14;95277.50;10237887;28;1910;-71
2023/05/15 22:03:09;;;;;;;;;;;;;;;20.20;50.97;95274.09;10239924;28;1911;-72
2023/05/15 22:08:10;;;;;;;;;;;;;;;20.19;51.20;95280.44;10241409;28;1919;-71
2023/05/15 22:13:10;;;;;;;;;;;;;;;20.17;51.03;95276.47;10238372;28;1812;-72
2023/05/15 22:18:11;;;;;;;;;;;;;;;20.18;51.13;95278.03;10239328;28;1906;-71
2023/05/15 22:23:11;;;;;;;;;;;;;;;20.15;51.01;95284.63;10234238;28;1950;-71
2023/05/15 22:28:11;;;;;;;;;;;;;;;20.15;51.07;95289.13;10237878;28;2005;-71
2023/05/15 22:33:12;;;;;;;;;;;;;;;20.14;50.87;95298.88;10219603;28;1845;-70
2023/05/15 22:38:12;;;;;;;;;;;;;;;20.13;50.82;95286.75;10240202;28;1835;-71
2023/05/15 22:43:12;;;;;;;;;;;;;;;20.10;50.83;95286.53;10238748;28;5041;-71
2023/05/15 22:48:14;;;;;;;;;;;;;;;20.09;50.54;95291.00;10242047;28;1815;-71
2023/05/15 22:53:14;;;;;;;;;;;;;;;20.10;50.48;95283.91;10241515;28;2074;-71
2023/05/15 22:58:14;;;;;;;;;;;;;;;20.09;50.36;95283.13;10221927;28;1876;-71
2023/05/15 23:03:14;;;;;;;;;;;;;;;20.08;50.37;95286.84;10234210;28;1939;-71
2023/05/15 23:08:21;;;;;;;;;;;;;;;20.07;50.48;95287.13;10244290;28;1856;-71
2023/05/15 23:13:21;;;;;;;;;;;;;;;20.06;50.24;95285.53;10238111;28;1903;-71
2023/05/15 23:18:21;;;;;;;;;;;;;;;20.05;50.48;95276.09;10240283;28;1873;-71
2023/05/15 23:23:21;;;;;;;;;;;;;;;20.03;50.43;95279.00;10242489;28;1907;-71
2023/05/15 23:28:22;;;;;;;;;;;;;;;20.03;50.29;95275.59;10237185;28;2014;-71
2023/05/15 23:33:22;;;;;;;;;;;;;;;20.02;50.29;95274.00;10241445;28;1904;-70
2023/05/15 23:38:22;;;;;;;;;;;;;;;20.02;50.28;95263.50;10245278;28;1848;-71
2023/05/15 23:43:22;;;;;;;;;;;;;;;20.00;50.19;95266.41;10236012;28;4967;-71
2023/05/15 23:48:23;;;;;;;;;;;;;;;20.00;50.11;95261.16;10242529;28;1974;-71
2023/05/15 23:53:23;;;;;;;;;;;;;;;19.99;50.08;95259.56;10236860;28;2126;-71
2023/05/15 23:58:23;;;;;;;;;;;;;;;19.99;50.17;95259.56;10240512;28;1809;-71
